WMKP/PEN METAR and TAF weather

Enter ICAO airport designator
Station Type Date Time Source
WMKP METAR 2020/11/25 22:30 UTC NOAA

WMKP 252230Z 04005KT 010V070 8000 FEW025 26/23 Q1008 NOSIG


Station Type Date Time Source
WMKP Decoded METAR 2020/11/25 22:30 UTC NOAA

Penang / Bayan Lepas, Malaysia (WMKP) 05-18N 100-16E 4M
Nov 25, 2020 - 05:30 PM EST / 2020.11.25 2230 UTC
Wind: from the NE (040 degrees) at 6 MPH (5 KT) (direction variable):0
Visibility: 4 mile(s):0
Sky conditions: mostly clear
Temperature: 78 F (26 C)
Dew Point: 73 F (23 C)
Relative Humidity: 83%
Pressure (altimeter): 29.77 in. Hg (1008 hPa)
ob: WMKP 252230Z 04005KT 010V070 8000 FEW025 26/23 Q1008 NOSIG
cycle: 22

Station Type Date Time Source
WMKP TAF 2020/11/25 18:09 UTC NOAA

TAF WMKP 251700Z 2518/2618 VRB03KT 8000 FEW025
BECMG 2604/2606 21006KT 9000 FEW020
TEMPO 2608/2612 6000 -TSRA FEW010 FEW017CB

Example: see airport list